createdAt,value
2023-12-19T00:00:19.082Z,3.90
2023-12-19T00:02:52.876Z,4.45
2023-12-19T00:05:25.632Z,4.25
2023-12-19T00:07:58.027Z,4.37
2023-12-19T00:10:31.754Z,3.85
2023-12-19T00:13:04.621Z,3.58
2023-12-19T00:15:37.359Z,3.15
2023-12-19T00:18:10.669Z,3.98
2023-12-19T00:20:43.126Z,3.47
2023-12-19T00:23:15.564Z,4.08
2023-12-19T00:25:48.330Z,2.60
2023-12-19T00:28:21.272Z,3.30
2023-12-19T00:30:53.936Z,3.50
2023-12-19T00:33:26.953Z,4.08
2023-12-19T00:35:59.642Z,3.47
2023-12-19T00:38:32.109Z,3.87
2023-12-19T00:41:05.220Z,3.45
2023-12-19T00:43:37.792Z,3.70
2023-12-19T00:46:10.664Z,3.98
2023-12-19T00:48:43.294Z,4.95
2023-12-19T00:51:15.835Z,3.65
2023-12-19T00:53:48.506Z,3.50
2023-12-19T00:56:22.696Z,4.05
2023-12-19T00:58:54.834Z,4.03
2023-12-19T01:01:28.603Z,3.08
2023-12-19T01:04:01.765Z,3.08
2023-12-19T01:06:34.538Z,3.98
2023-12-19T01:09:11.052Z,3.83
2023-12-19T01:11:43.661Z,3.67
2023-12-19T01:14:16.160Z,5.00
2023-12-19T01:16:49.016Z,3.80
2023-12-19T01:19:21.626Z,3.58
2023-12-19T01:21:56.021Z,3.27
2023-12-19T01:24:28.622Z,4.50
2023-12-19T01:27:01.286Z,4.00
2023-12-19T01:29:33.914Z,3.98
2023-12-19T01:32:07.390Z,3.70
2023-12-19T01:34:39.895Z,3.80
2023-12-19T01:37:13.512Z,4.15
2023-12-19T01:39:46.233Z,4.33
2023-12-19T01:42:18.932Z,4.37
2023-12-19T01:45:08.496Z,5.60
2023-12-19T01:47:45.905Z,4.85
2023-12-19T01:50:19.134Z,5.53
2023-12-19T01:52:55.554Z,5.42
2023-12-19T01:55:28.973Z,5.70
2023-12-19T01:58:01.619Z,5.22
2023-12-19T02:00:35.107Z,6.37
2023-12-19T02:03:07.829Z,5.42
2023-12-19T02:05:41.358Z,4.50
2023-12-19T02:08:13.959Z,5.85
2023-12-19T02:10:47.031Z,4.42
2023-12-19T02:13:19.474Z,4.10
2023-12-19T02:15:52.887Z,3.90
2023-12-19T02:18:25.356Z,4.60
2023-12-19T02:20:58.691Z,5.35
2023-12-19T02:23:31.149Z,4.15
2023-12-19T02:26:03.495Z,4.33
2023-12-19T02:28:36.125Z,3.87
2023-12-19T02:31:08.591Z,3.70
2023-12-19T02:33:41.923Z,4.15
2023-12-19T02:36:14.459Z,3.42
2023-12-19T02:38:47.247Z,3.42
2023-12-19T02:41:21.122Z,3.40
2023-12-19T02:43:55.395Z,3.80
2023-12-19T02:46:27.657Z,3.90
2023-12-19T02:49:00.892Z,3.85
2023-12-19T02:51:33.585Z,3.60
2023-12-19T02:54:06.934Z,3.50
2023-12-19T02:56:39.342Z,3.92
2023-12-19T02:59:12.050Z,3.90
2023-12-19T03:01:49.434Z,3.77
2023-12-19T03:04:22.113Z,4.20
2023-12-19T03:06:54.647Z,3.83
2023-12-19T03:09:27.245Z,3.95
2023-12-19T03:12:07.595Z,4.27
2023-12-19T03:14:42.697Z,6.00
2023-12-19T03:17:15.555Z,4.92
2023-12-19T03:19:49.174Z,5.12
2023-12-19T03:22:21.947Z,4.83
2023-12-19T03:24:54.665Z,5.70
2023-12-19T03:27:27.890Z,6.17
2023-12-19T03:30:00.393Z,5.65
2023-12-19T03:32:33.896Z,5.78
2023-12-19T03:35:07.275Z,5.28
2023-12-19T03:37:39.807Z,4.65
2023-12-19T03:40:12.344Z,4.78
2023-12-19T03:42:46.192Z,4.78
2023-12-19T03:45:18.826Z,4.90
2023-12-19T03:47:51.390Z,4.97
2023-12-19T03:50:24.050Z,5.55
2023-12-19T03:52:56.451Z,5.35
2023-12-19T03:55:28.794Z,5.12
2023-12-19T03:58:01.220Z,4.65
2023-12-19T04:00:34.108Z,4.85
2023-12-19T04:03:06.750Z,4.78
2023-12-19T04:05:39.422Z,4.85
2023-12-19T04:08:11.754Z,5.78
2023-12-19T04:10:44.357Z,4.92
2023-12-19T04:13:16.827Z,5.00
2023-12-19T04:15:49.304Z,6.30
2023-12-19T04:18:21.835Z,6.15
2023-12-19T04:20:54.521Z,5.35
2023-12-19T04:23:27.909Z,5.65
2023-12-19T04:26:00.660Z,5.12
2023-12-19T04:28:33.264Z,5.17
2023-12-19T04:31:06.046Z,5.53
2023-12-19T04:33:38.754Z,6.25
2023-12-19T04:36:11.690Z,5.15
2023-12-19T04:38:44.284Z,5.30
2023-12-19T04:41:16.923Z,5.15
2023-12-19T04:43:49.531Z,6.03
2023-12-19T04:46:21.987Z,6.30
2023-12-19T04:48:56.296Z,5.60
2023-12-19T04:51:28.725Z,5.28
2023-12-19T04:54:03.969Z,6.07
2023-12-19T04:56:39.653Z,7.33
2023-12-19T04:59:12.120Z,5.72
2023-12-19T05:01:45.704Z,5.78
2023-12-19T05:04:18.331Z,5.50
2023-12-19T05:06:50.813Z,6.10
2023-12-19T05:09:23.435Z,5.30
2023-12-19T05:11:56.090Z,7.28
2023-12-19T05:14:28.497Z,7.75
2023-12-19T05:17:03.469Z,5.90
2023-12-19T05:19:43.927Z,8.33
2023-12-19T05:22:10.758Z,6.67
2023-12-19T05:24:44.833Z,6.87
2023-12-19T05:27:17.154Z,7.42
2023-12-19T05:29:49.646Z,11.08
2023-12-19T05:32:22.326Z,10.70
2023-12-19T05:34:55.575Z,8.75
2023-12-19T05:37:28.234Z,9.38
2023-12-19T05:40:00.808Z,8.05
2023-12-19T05:42:33.736Z,7.85
2023-12-19T05:45:08.848Z,8.75
2023-12-19T05:47:43.439Z,7.12
2023-12-19T05:50:21.580Z,8.25
2023-12-19T05:52:56.466Z,8.70
2023-12-19T05:55:29.541Z,11.05
2023-12-19T05:58:02.198Z,10.82
2023-12-19T06:00:35.379Z,11.38
2023-12-19T06:03:09.814Z,11.25
2023-12-19T06:05:42.345Z,14.28
2023-12-19T06:08:15.477Z,14.35
2023-12-19T06:10:48.507Z,14.98
2023-12-19T06:13:21.759Z,15.72
2023-12-19T06:15:54.678Z,16.13
2023-12-19T06:18:27.812Z,16.27
2023-12-19T06:21:02.877Z,13.38
2023-12-19T06:23:35.501Z,13.75
2023-12-19T06:26:08.064Z,16.67
2023-12-19T06:28:41.784Z,12.37
2023-12-19T06:31:14.468Z,12.10
2023-12-19T06:33:47.011Z,15.10
2023-12-19T06:36:32.909Z,13.15
2023-12-19T06:39:05.537Z,13.72
2023-12-19T06:41:39.006Z,16.42
2023-12-19T06:44:11.615Z,14.90
2023-12-19T06:46:44.109Z,13.00
2023-12-19T06:49:19.860Z,12.53
2023-12-19T06:51:52.583Z,14.90
2023-12-19T06:54:25.052Z,15.43
2023-12-19T06:56:57.735Z,17.57
2023-12-19T06:59:32.474Z,18.25
2023-12-19T07:02:05.034Z,18.02
2023-12-19T07:04:37.489Z,17.07
2023-12-19T07:07:10.169Z,14.93
2023-12-19T07:09:42.773Z,15.88
2023-12-19T07:12:15.620Z,16.87
2023-12-19T07:14:51.003Z,15.20
2023-12-19T07:17:24.038Z,16.27
2023-12-19T07:19:56.779Z,14.35
2023-12-19T07:22:29.870Z,14.15
2023-12-19T07:25:02.743Z,15.70
2023-12-19T07:27:38.049Z,19.07
2023-12-19T07:30:10.961Z,17.87
2023-12-19T07:32:43.986Z,16.63
2023-12-19T07:35:16.697Z,17.90
2023-12-19T07:37:49.344Z,17.95
2023-12-19T07:40:21.746Z,17.20
2023-12-19T07:42:54.783Z,16.25
2023-12-19T07:45:27.530Z,17.20
2023-12-19T07:48:00.198Z,17.73
2023-12-19T07:50:34.227Z,18.50
2023-12-19T07:53:07.510Z,20.37
2023-12-19T07:55:40.008Z,16.52
2023-12-19T07:58:13.419Z,17.02
2023-12-19T08:00:46.419Z,17.57
2023-12-19T08:03:19.591Z,15.68
2023-12-19T08:05:52.216Z,17.00
2023-12-19T08:08:25.112Z,17.98
2023-12-19T08:10:58.517Z,17.40
2023-12-19T08:13:31.661Z,18.12
2023-12-19T08:16:05.809Z,19.45
2023-12-19T08:18:38.554Z,22.67
2023-12-19T08:21:11.026Z,18.30
2023-12-19T08:23:44.137Z,20.48
2023-12-19T08:26:16.946Z,20.68
2023-12-19T08:28:50.250Z,23.40
2023-12-19T08:31:23.971Z,18.45
2023-12-19T08:33:58.278Z,17.55
2023-12-19T08:36:34.186Z,17.30
2023-12-19T08:39:08.040Z,19.37
2023-12-19T08:41:40.470Z,18.80
2023-12-19T08:44:13.010Z,20.05
2023-12-19T08:46:48.568Z,20.30
2023-12-19T08:49:21.019Z,18.20
2023-12-19T08:51:53.906Z,19.50
2023-12-19T08:54:26.512Z,17.60
2023-12-19T08:57:00.597Z,18.15
2023-12-19T08:59:34.013Z,24.10
2023-12-19T09:02:08.328Z,22.95
2023-12-19T09:04:42.213Z,19.75
2023-12-19T09:07:15.287Z,20.68
2023-12-19T09:09:48.597Z,20.65
2023-12-19T09:12:21.136Z,21.93
2023-12-19T09:14:53.581Z,18.37
2023-12-19T09:17:26.680Z,19.95
2023-12-19T09:20:00.458Z,20.60
2023-12-19T09:22:34.278Z,18.90
2023-12-19T09:25:10.278Z,21.65
2023-12-19T09:27:47.108Z,24.23
2023-12-19T09:30:20.717Z,22.27
2023-12-19T09:32:54.550Z,22.20
2023-12-19T09:35:27.085Z,20.10
2023-12-19T09:38:01.974Z,21.75
2023-12-19T09:40:34.516Z,22.40
2023-12-19T09:43:08.614Z,24.50
2023-12-19T09:45:42.840Z,19.73
2023-12-19T09:48:15.482Z,22.05
2023-12-19T09:50:48.665Z,22.07
2023-12-19T09:53:23.790Z,25.45
2023-12-19T09:55:55.393Z,24.10
2023-12-19T09:58:29.669Z,21.85
2023-12-19T10:01:02.884Z,23.10
2023-12-19T10:03:35.375Z,21.97
2023-12-19T10:06:08.012Z,24.75
2023-12-19T10:08:46.789Z,27.60
2023-12-19T10:11:20.320Z,25.32
2023-12-19T10:13:53.270Z,23.13
2023-12-19T10:16:33.976Z,25.05
2023-12-19T10:19:04.493Z,24.07
2023-12-19T10:21:37.578Z,21.97
2023-12-19T10:24:15.908Z,24.27
2023-12-19T10:26:49.070Z,22.55
2023-12-19T10:29:26.261Z,24.15
2023-12-19T10:31:58.989Z,22.80
2023-12-19T10:34:31.743Z,22.37
2023-12-19T10:37:12.918Z,23.83
2023-12-19T10:39:45.638Z,22.65
2023-12-19T10:42:21.762Z,26.17
2023-12-19T10:44:55.940Z,24.87
2023-12-19T10:50:01.652Z,28.38
2023-12-19T10:52:35.209Z,27.80
2023-12-19T10:55:17.399Z,28.25
2023-12-19T10:57:45.239Z,28.00
2023-12-19T11:00:24.179Z,29.35
2023-12-19T11:03:13.875Z,29.57
2023-12-19T11:05:49.750Z,28.23
2023-12-19T11:08:24.152Z,27.30
2023-12-19T11:16:26.512Z,32.05
2023-12-19T11:19:10.331Z,28.75
2023-12-19T11:22:12.258Z,28.42
2023-12-19T11:24:51.203Z,30.65
2023-12-19T11:27:28.277Z,30.00
2023-12-19T11:30:02.070Z,33.80
2023-12-19T11:32:39.579Z,32.05
2023-12-19T11:35:14.242Z,34.15
2023-12-19T11:37:48.184Z,32.35
2023-12-19T11:40:49.150Z,31.23
2023-12-19T11:43:37.318Z,37.08
2023-12-19T11:46:19.662Z,34.80
2023-12-19T11:48:53.062Z,32.85
2023-12-19T11:51:50.344Z,36.65
2023-12-19T11:54:23.692Z,32.48
2023-12-19T11:57:03.286Z,35.88
2023-12-19T11:59:49.327Z,36.33
2023-12-19T12:02:36.677Z,32.40
2023-12-19T12:05:18.339Z,37.78
2023-12-19T12:07:53.005Z,33.10
2023-12-19T12:13:00.701Z,32.85
2023-12-19T12:18:07.481Z,32.05
2023-12-19T12:23:12.229Z,33.92
2023-12-19T12:25:44.880Z,32.23
2023-12-19T12:28:19.652Z,36.53
2023-12-19T12:30:56.057Z,34.48
2023-12-19T12:33:29.841Z,36.95
2023-12-19T12:36:03.354Z,32.10
2023-12-19T12:38:36.129Z,37.48
2023-12-19T12:41:11.056Z,27.62
2023-12-19T12:43:54.699Z,33.28
2023-12-19T12:46:27.901Z,28.75
2023-12-19T12:49:06.148Z,27.17
2023-12-19T12:51:39.408Z,25.68
2023-12-19T12:54:12.116Z,27.85
2023-12-19T12:56:45.825Z,29.48
2023-12-19T12:59:21.408Z,26.87
2023-12-19T13:01:54.185Z,23.12
2023-12-19T13:04:26.929Z,29.80
2023-12-19T13:06:59.780Z,25.80
2023-12-19T13:09:32.305Z,29.00
2023-12-19T13:12:05.363Z,24.70
2023-12-19T13:14:38.852Z,23.85
2023-12-19T13:17:11.627Z,27.90
2023-12-19T13:19:44.700Z,24.57
2023-12-19T13:22:17.747Z,28.98
2023-12-19T13:24:50.572Z,24.50
2023-12-19T13:27:23.393Z,28.02
2023-12-19T13:29:56.116Z,25.37
2023-12-19T13:32:29.684Z,25.82
2023-12-19T13:35:02.811Z,27.52
2023-12-19T13:37:36.271Z,31.20
2023-12-19T13:40:11.005Z,27.82
2023-12-19T13:42:43.967Z,29.15
2023-12-19T13:45:16.824Z,26.68
2023-12-19T13:47:49.593Z,27.87
2023-12-19T13:50:22.576Z,30.32
2023-12-19T13:52:55.424Z,28.15
2023-12-19T13:55:28.345Z,27.05
2023-12-19T13:58:01.513Z,21.48
2023-12-19T14:00:35.661Z,24.37
2023-12-19T14:03:11.413Z,25.25
2023-12-19T14:05:44.579Z,22.70
2023-12-19T14:08:20.106Z,22.85
2023-12-19T14:10:52.861Z,22.30
2023-12-19T14:13:25.718Z,22.48
2023-12-19T14:15:58.652Z,20.57
2023-12-19T14:18:31.526Z,20.20
2023-12-19T14:21:04.455Z,22.27
2023-12-19T14:23:38.111Z,22.65
2023-12-19T14:28:43.698Z,20.12
2023-12-19T14:31:18.251Z,21.33
2023-12-19T14:33:51.829Z,23.65
2023-12-19T14:36:24.893Z,21.37
2023-12-19T14:39:00.718Z,22.30
2023-12-19T14:41:33.980Z,22.05
2023-12-19T14:44:07.136Z,23.45
2023-12-19T14:46:40.949Z,25.62
2023-12-19T14:49:13.636Z,23.18
2023-12-19T14:51:46.783Z,25.85
2023-12-19T14:54:19.461Z,25.90
2023-12-19T14:56:52.027Z,23.35
2023-12-19T14:59:24.984Z,22.85
2023-12-19T15:01:59.181Z,24.57
2023-12-19T15:04:35.842Z,22.65
2023-12-19T15:07:08.958Z,23.70
2023-12-19T15:09:42.140Z,24.67
2023-12-19T15:12:15.195Z,19.77
2023-12-19T15:14:48.717Z,19.27
2023-12-19T15:17:22.413Z,22.95
2023-12-19T15:19:55.337Z,19.77
2023-12-19T15:22:29.979Z,19.62
2023-12-19T15:25:02.757Z,19.50
2023-12-19T15:27:37.509Z,23.57
2023-12-19T15:30:13.063Z,30.55
2023-12-19T15:32:46.638Z,18.62
2023-12-19T15:35:20.131Z,18.90
2023-12-19T15:37:53.156Z,18.33
2023-12-19T15:40:26.692Z,16.40
2023-12-19T15:43:01.319Z,17.75
2023-12-19T15:45:34.610Z,19.90
2023-12-19T15:48:08.909Z,17.62
2023-12-19T15:50:42.212Z,18.07
2023-12-19T15:53:15.070Z,17.98
2023-12-19T15:55:48.841Z,20.12
2023-12-19T15:58:22.816Z,17.87
2023-12-19T16:00:56.971Z,13.78
2023-12-19T16:03:30.216Z,16.73
2023-12-19T16:06:03.755Z,17.25
2023-12-19T16:08:38.908Z,15.33
2023-12-19T16:11:11.653Z,15.80
2023-12-19T16:13:45.808Z,17.02
2023-12-19T16:16:22.252Z,20.97
2023-12-19T16:18:55.293Z,16.37
2023-12-19T16:21:28.128Z,18.95
2023-12-19T16:24:04.319Z,19.10
2023-12-19T16:29:08.041Z,18.50
2023-12-19T16:31:42.798Z,18.70
2023-12-19T16:36:47.746Z,17.35
2023-12-19T16:39:20.818Z,15.80
2023-12-19T16:41:53.482Z,16.10
2023-12-19T16:44:26.379Z,18.12
2023-12-19T16:46:58.789Z,19.10
2023-12-19T16:49:32.191Z,17.62
2023-12-19T16:52:05.757Z,16.87
2023-12-19T16:54:38.700Z,19.32
2023-12-19T16:57:12.356Z,16.52
2023-12-19T16:59:45.103Z,15.78
2023-12-19T17:02:18.236Z,16.05
2023-12-19T17:04:51.597Z,16.90
2023-12-19T17:07:24.371Z,17.87
2023-12-19T17:09:57.103Z,17.23
2023-12-19T17:12:29.946Z,16.12
2023-12-19T17:15:03.338Z,15.98
2023-12-19T17:17:37.411Z,14.23
2023-12-19T17:20:11.262Z,15.53
2023-12-19T17:22:44.684Z,15.90
2023-12-19T17:25:17.596Z,15.65
2023-12-19T17:27:50.457Z,17.65
2023-12-19T17:30:24.014Z,18.70
2023-12-19T17:32:57.334Z,16.57
2023-12-19T17:35:30.282Z,14.98
2023-12-19T17:38:03.002Z,18.65
2023-12-19T17:40:36.246Z,17.62
2023-12-19T17:43:09.664Z,17.35
2023-12-19T17:45:42.314Z,16.82
2023-12-19T17:48:15.123Z,17.65
2023-12-19T17:50:47.735Z,25.05
2023-12-19T17:53:21.535Z,19.17
2023-12-19T17:55:55.923Z,16.80
2023-12-19T17:58:28.679Z,16.73
2023-12-19T18:01:02.871Z,20.30
2023-12-19T18:03:36.158Z,17.82
2023-12-19T18:06:09.607Z,16.87
2023-12-19T18:08:42.618Z,18.67
2023-12-19T18:11:20.452Z,18.92
2023-12-19T18:13:56.165Z,20.17
2023-12-19T18:16:28.910Z,21.20
2023-12-19T18:19:01.772Z,20.05
2023-12-19T18:21:34.986Z,20.62
2023-12-19T18:24:10.218Z,19.95
2023-12-19T18:26:42.798Z,19.82
2023-12-19T18:29:15.990Z,18.77
2023-12-19T18:31:49.018Z,18.75
2023-12-19T18:34:22.937Z,17.17
2023-12-19T18:36:56.728Z,16.20
2023-12-19T18:39:29.654Z,19.65
2023-12-19T18:42:02.462Z,18.90
2023-12-19T18:44:35.484Z,18.05
2023-12-19T18:47:09.091Z,19.30
2023-12-19T18:49:42.612Z,18.30
2023-12-19T18:52:15.419Z,23.32
2023-12-19T18:54:48.305Z,18.00
2023-12-19T18:57:21.126Z,19.60
2023-12-19T18:59:54.107Z,21.55
2023-12-19T19:02:31.445Z,16.80
2023-12-19T19:05:04.983Z,20.90
2023-12-19T19:07:37.814Z,16.73
2023-12-19T19:10:13.098Z,17.27
2023-12-19T19:12:50.541Z,18.20
2023-12-19T19:15:23.914Z,16.85
2023-12-19T19:17:57.161Z,18.25
2023-12-19T19:20:37.455Z,17.52
2023-12-19T19:23:11.854Z,16.40
2023-12-19T19:25:46.971Z,23.95
2023-12-19T19:28:20.689Z,21.97
2023-12-19T19:30:53.615Z,22.93
2023-12-19T19:33:28.462Z,23.50
2023-12-19T19:38:33.558Z,19.40
2023-12-19T19:41:06.195Z,20.23
2023-12-19T19:43:40.541Z,21.77
2023-12-19T19:46:13.992Z,22.58
2023-12-19T19:48:46.989Z,19.98
2023-12-19T19:51:22.192Z,20.70
2023-12-19T19:53:55.185Z,19.82
2023-12-19T19:56:28.984Z,20.00
2023-12-19T19:59:02.255Z,21.15
2023-12-19T20:01:36.551Z,20.10
2023-12-19T20:04:09.582Z,21.60
2023-12-19T20:06:42.634Z,22.85
2023-12-19T20:09:15.394Z,23.83
2023-12-19T20:14:21.653Z,25.30
2023-12-19T20:16:59.425Z,24.18
2023-12-19T20:19:32.461Z,26.68
2023-12-19T20:22:05.859Z,25.23
2023-12-19T20:24:39.273Z,24.20
2023-12-19T20:27:12.173Z,23.25
2023-12-19T20:29:46.432Z,24.92
2023-12-19T20:32:19.359Z,21.02
2023-12-19T20:34:51.881Z,19.92
2023-12-19T20:37:26.709Z,19.85
2023-12-19T20:39:59.731Z,17.85
2023-12-19T20:42:32.449Z,19.48
2023-12-19T20:45:05.918Z,19.55
2023-12-19T20:47:39.767Z,20.00
2023-12-19T20:50:14.155Z,17.27
2023-12-19T20:52:54.014Z,17.30
2023-12-19T20:57:54.535Z,16.52
2023-12-19T21:00:27.766Z,19.05
2023-12-19T21:03:00.416Z,20.50
2023-12-19T21:05:33.529Z,19.65
2023-12-19T21:08:06.628Z,18.82
2023-12-19T21:10:40.070Z,19.23
2023-12-19T21:13:13.368Z,20.97
2023-12-19T21:15:46.178Z,20.85
2023-12-19T21:18:19.937Z,19.67
2023-12-19T21:20:52.985Z,17.85
2023-12-19T21:23:26.514Z,16.82
2023-12-19T21:25:59.527Z,19.50
2023-12-19T21:28:32.740Z,18.05
2023-12-19T21:31:05.624Z,19.65
2023-12-19T21:33:39.357Z,17.95
2023-12-19T21:36:13.373Z,19.60
2023-12-19T21:38:46.565Z,20.52
2023-12-19T21:41:19.933Z,20.32
2023-12-19T21:43:52.363Z,17.15
2023-12-19T21:46:24.775Z,17.98
2023-12-19T21:48:57.446Z,17.37
2023-12-19T21:51:31.839Z,21.27
2023-12-19T21:54:05.811Z,15.15
2023-12-19T21:56:42.330Z,17.67
2023-12-19T21:59:14.864Z,17.05
2023-12-19T22:01:47.419Z,16.97
2023-12-19T22:04:20.111Z,16.37
2023-12-19T22:06:52.654Z,17.15
2023-12-19T22:09:25.260Z,17.07
2023-12-19T22:11:57.652Z,18.12
2023-12-19T22:14:30.019Z,16.62
2023-12-19T22:17:03.411Z,21.82
2023-12-19T22:19:35.932Z,19.82
2023-12-19T22:22:10.282Z,21.70
2023-12-19T22:24:42.751Z,18.75
2023-12-19T22:27:17.164Z,17.52
2023-12-19T22:29:49.654Z,21.17
2023-12-19T22:32:22.359Z,19.00
2023-12-19T22:34:55.452Z,19.55
2023-12-19T22:37:27.860Z,17.37
2023-12-19T22:40:00.456Z,17.37
2023-12-19T22:42:32.940Z,16.05
2023-12-19T22:45:07.047Z,14.63
2023-12-19T22:47:39.651Z,15.25
2023-12-19T22:50:12.395Z,13.13
2023-12-19T22:52:46.764Z,16.12
2023-12-19T22:55:20.612Z,15.98
2023-12-19T22:57:53.641Z,14.90
2023-12-19T23:00:26.227Z,16.42
2023-12-19T23:02:59.240Z,16.73
2023-12-19T23:05:32.237Z,15.08
2023-12-19T23:08:06.098Z,14.95
2023-12-19T23:10:39.519Z,14.25
2023-12-19T23:13:12.079Z,12.60
2023-12-19T23:15:46.684Z,13.78
2023-12-19T23:18:19.133Z,15.13
2023-12-19T23:20:51.606Z,15.10
2023-12-19T23:23:24.158Z,14.53
2023-12-19T23:25:56.649Z,16.65
2023-12-19T23:28:29.837Z,14.63
2023-12-19T23:31:03.829Z,14.95
2023-12-19T23:33:36.447Z,13.60
2023-12-19T23:36:09.253Z,15.88
2023-12-19T23:38:41.672Z,14.47
2023-12-19T23:41:18.640Z,13.58
2023-12-19T23:43:51.201Z,16.20
2023-12-19T23:46:24.061Z,12.58
2023-12-19T23:48:56.647Z,14.15
2023-12-19T23:51:29.123Z,13.83
2023-12-19T23:54:01.655Z,13.30
2023-12-19T23:56:34.419Z,13.30
2023-12-19T23:59:06.856Z,14.25
